Terminal Aerodrome Forecast
Issued by NWS Sterling, VA

Current Version | Previous Version | Text Only | Print | Product List | Glossary Off
Versions: 1 2 3 4 5 6 7 8 9 10 11 12 13 14 15 16 17 18 19

000
FTUS41 KLWX 270538
TAFMRB
TAF
KMRB 270538Z 2706/2806 VRB03KT P6SM SCT050 OVC250
     FM270800 02008KT P6SM BKN025
     FM271000 03007KT P6SM OVC015
     FM271800 07005KT P6SM OVC035
     FM280000 VRB03KT P6SM OVC025=

USA.gov is the U.S. government's official web portal to all federal, state and local government web resources and services.